sensor_id;sensor_type;location;lat;lon;timestamp;P1;durP1;ratioP1;P2;durP2;ratioP2
44862;SDS011;30597;49.628;10.850;2023-03-02T00:00:44;7.63;;;6.50;;
44862;SDS011;30597;49.628;10.850;2023-03-02T00:03:10;8.17;;;7.33;;
44862;SDS011;30597;49.628;10.850;2023-03-02T00:05:38;8.60;;;7.67;;
44862;SDS011;30597;49.628;10.850;2023-03-02T00:08:05;8.33;;;7.43;;
44862;SDS011;30597;49.628;10.850;2023-03-02T00:10:33;7.73;;;7.03;;
44862;SDS011;30597;49.628;10.850;2023-03-02T00:13:00;8.00;;;7.20;;
44862;SDS011;30597;49.628;10.850;2023-03-02T00:15:26;9.40;;;7.27;;
44862;SDS011;30597;49.628;10.850;2023-03-02T00:17:51;8.53;;;6.90;;
44862;SDS011;30597;49.628;10.850;2023-03-02T00:20:17;8.37;;;6.73;;
44862;SDS011;30597;49.628;10.850;2023-03-02T00:22:43;8.80;;;6.97;;
44862;SDS011;30597;49.628;10.850;2023-03-02T00:25:10;9.47;;;7.63;;
44862;SDS011;30597;49.628;10.850;2023-03-02T00:27:38;9.63;;;6.27;;
44862;SDS011;30597;49.628;10.850;2023-03-02T00:30:04;8.03;;;7.23;;
44862;SDS011;30597;49.628;10.850;2023-03-02T00:32:30;6.80;;;6.10;;
44862;SDS011;30597;49.628;10.850;2023-03-02T00:34:56;7.00;;;6.30;;
44862;SDS011;30597;49.628;10.850;2023-03-02T00:37:22;7.30;;;6.23;;
44862;SDS011;30597;49.628;10.850;2023-03-02T00:39:52;7.33;;;6.20;;
44862;SDS011;30597;49.628;10.850;2023-03-02T00:42:18;7.33;;;6.33;;
44862;SDS011;30597;49.628;10.850;2023-03-02T00:44:44;7.27;;;6.13;;
44862;SDS011;30597;49.628;10.850;2023-03-02T00:47:10;6.93;;;6.23;;
44862;SDS011;30597;49.628;10.850;2023-03-02T00:49:36;6.90;;;6.20;;
44862;SDS011;30597;49.628;10.850;2023-03-02T00:52:02;7.90;;;7.10;;
44862;SDS011;30597;49.628;10.850;2023-03-02T00:54:28;6.40;;;5.80;;
44862;SDS011;30597;49.628;10.850;2023-03-02T00:56:53;7.90;;;7.07;;
44862;SDS011;30597;49.628;10.850;2023-03-02T00:59:19;6.70;;;6.00;;
44862;SDS011;30597;49.628;10.850;2023-03-02T01:01:54;7.57;;;6.87;;
44862;SDS011;30597;49.628;10.850;2023-03-02T01:06:59;7.23;;;6.50;;
44862;SDS011;30597;49.628;10.850;2023-03-02T01:09:28;7.23;;;6.53;;
44862;SDS011;30597;49.628;10.850;2023-03-02T01:11:53;6.90;;;6.30;;
44862;SDS011;30597;49.628;10.850;2023-03-02T01:14:19;8.00;;;6.40;;
44862;SDS011;30597;49.628;10.850;2023-03-02T01:16:45;7.37;;;6.43;;
44862;SDS011;30597;49.628;10.850;2023-03-02T01:19:11;6.27;;;5.70;;
44862;SDS011;30597;49.628;10.850;2023-03-02T01:21:37;6.27;;;5.67;;
44862;SDS011;30597;49.628;10.850;2023-03-02T01:24:03;6.90;;;6.20;;
44862;SDS011;30597;49.628;10.850;2023-03-02T01:26:29;6.30;;;5.67;;
44862;SDS011;30597;49.628;10.850;2023-03-02T01:28:55;8.77;;;6.13;;
44862;SDS011;30597;49.628;10.850;2023-03-02T01:31:21;7.80;;;5.87;;
44862;SDS011;30597;49.628;10.850;2023-03-02T01:33:47;5.60;;;5.10;;
44862;SDS011;30597;49.628;10.850;2023-03-02T01:36:13;7.33;;;6.07;;
44862;SDS011;30597;49.628;10.850;2023-03-02T01:38:39;5.43;;;4.93;;
44862;SDS011;30597;49.628;10.850;2023-03-02T01:41:04;7.20;;;5.93;;
44862;SDS011;30597;49.628;10.850;2023-03-02T01:43:30;6.07;;;5.47;;
44862;SDS011;30597;49.628;10.850;2023-03-02T01:45:56;6.03;;;5.53;;
44862;SDS011;30597;49.628;10.850;2023-03-02T01:48:33;6.97;;;6.13;;
44862;SDS011;30597;49.628;10.850;2023-03-02T01:51:21;5.87;;;5.27;;
44862;SDS011;30597;49.628;10.850;2023-03-02T01:53:50;6.17;;;5.57;;
44862;SDS011;30597;49.628;10.850;2023-03-02T01:56:20;5.63;;;5.13;;
44862;SDS011;30597;49.628;10.850;2023-03-02T01:58:50;7.30;;;6.17;;
44862;SDS011;30597;49.628;10.850;2023-03-02T02:01:20;5.93;;;5.33;;
44862;SDS011;30597;49.628;10.850;2023-03-02T02:03:47;5.43;;;4.87;;
44862;SDS011;30597;49.628;10.850;2023-03-02T02:06:24;6.63;;;6.00;;
44862;SDS011;30597;49.628;10.850;2023-03-02T02:08:51;6.10;;;5.50;;
44862;SDS011;30597;49.628;10.850;2023-03-02T02:11:18;8.40;;;6.07;;
44862;SDS011;30597;49.628;10.850;2023-03-02T02:13:44;7.47;;;5.70;;
44862;SDS011;30597;49.628;10.850;2023-03-02T02:16:10;6.20;;;5.60;;
44862;SDS011;30597;49.628;10.850;2023-03-02T02:18:36;6.10;;;5.50;;
44862;SDS011;30597;49.628;10.850;2023-03-02T02:21:04;6.40;;;5.80;;
44862;SDS011;30597;49.628;10.850;2023-03-02T02:26:37;5.93;;;5.30;;
44862;SDS011;30597;49.628;10.850;2023-03-02T02:31:41;5.97;;;5.27;;
44862;SDS011;30597;49.628;10.850;2023-03-02T02:34:28;6.53;;;5.37;;
44862;SDS011;30597;49.628;10.850;2023-03-02T02:36:58;6.10;;;4.83;;
44862;SDS011;30597;49.628;10.850;2023-03-02T02:39:30;5.30;;;4.77;;
44862;SDS011;30597;49.628;10.850;2023-03-02T02:42:00;5.43;;;4.90;;
44862;SDS011;30597;49.628;10.850;2023-03-02T02:44:29;5.80;;;5.30;;
44862;SDS011;30597;49.628;10.850;2023-03-02T02:46:55;5.37;;;4.70;;
44862;SDS011;30597;49.628;10.850;2023-03-02T02:49:34;5.03;;;4.53;;
44862;SDS011;30597;49.628;10.850;2023-03-02T02:52:02;7.10;;;5.33;;
44862;SDS011;30597;49.628;10.850;2023-03-02T02:54:29;5.77;;;5.10;;
44862;SDS011;30597;49.628;10.850;2023-03-02T02:56:57;5.33;;;4.70;;
44862;SDS011;30597;49.628;10.850;2023-03-02T02:59:26;6.00;;;5.40;;
44862;SDS011;30597;49.628;10.850;2023-03-02T03:01:55;6.97;;;5.93;;
44862;SDS011;30597;49.628;10.850;2023-03-02T03:04:21;6.10;;;5.33;;
44862;SDS011;30597;49.628;10.850;2023-03-02T03:07:02;5.47;;;4.97;;
44862;SDS011;30597;49.628;10.850;2023-03-02T03:09:29;5.40;;;4.90;;
44862;SDS011;30597;49.628;10.850;2023-03-02T03:11:57;4.77;;;4.37;;
44862;SDS011;30597;49.628;10.850;2023-03-02T03:14:39;4.97;;;4.47;;
44862;SDS011;30597;49.628;10.850;2023-03-02T03:17:05;5.37;;;4.87;;
44862;SDS011;30597;49.628;10.850;2023-03-02T03:19:36;5.30;;;4.80;;
44862;SDS011;30597;49.628;10.850;2023-03-02T03:22:03;5.50;;;5.00;;
44862;SDS011;30597;49.628;10.850;2023-03-02T03:24:30;4.80;;;4.30;;
44862;SDS011;30597;49.628;10.850;2023-03-02T03:26:58;7.00;;;5.00;;
44862;SDS011;30597;49.628;10.850;2023-03-02T03:29:25;5.03;;;4.53;;
44862;SDS011;30597;49.628;10.850;2023-03-02T03:31:53;5.50;;;5.00;;
44862;SDS011;30597;49.628;10.850;2023-03-02T03:34:20;6.30;;;5.10;;
44862;SDS011;30597;49.628;10.850;2023-03-02T03:36:45;5.90;;;4.40;;
44862;SDS011;30597;49.628;10.850;2023-03-02T03:39:12;5.90;;;5.27;;
44862;SDS011;30597;49.628;10.850;2023-03-02T03:41:38;5.30;;;4.77;;
44862;SDS011;30597;49.628;10.850;2023-03-02T03:44:04;5.20;;;4.70;;
44862;SDS011;30597;49.628;10.850;2023-03-02T03:46:30;4.90;;;4.03;;
44862;SDS011;30597;49.628;10.850;2023-03-02T03:48:57;5.50;;;4.80;;
44862;SDS011;30597;49.628;10.850;2023-03-02T03:51:23;4.60;;;4.13;;
44862;SDS011;30597;49.628;10.850;2023-03-02T03:53:49;4.97;;;4.37;;
44862;SDS011;30597;49.628;10.850;2023-03-02T03:56:24;5.10;;;4.60;;
44862;SDS011;30597;49.628;10.850;2023-03-02T03:58:51;4.83;;;4.30;;
44862;SDS011;30597;49.628;10.850;2023-03-02T04:04:02;4.43;;;4.00;;
44862;SDS011;30597;49.628;10.850;2023-03-02T04:06:29;5.00;;;4.53;;
44862;SDS011;30597;49.628;10.850;2023-03-02T04:08:54;4.67;;;4.20;;
44862;SDS011;30597;49.628;10.850;2023-03-02T04:11:20;4.97;;;4.47;;
44862;SDS011;30597;49.628;10.850;2023-03-02T04:13:45;5.70;;;4.80;;
44862;SDS011;30597;49.628;10.850;2023-03-02T04:16:12;5.40;;;4.57;;
44862;SDS011;30597;49.628;10.850;2023-03-02T04:18:38;4.70;;;4.30;;
44862;SDS011;30597;49.628;10.850;2023-03-02T04:21:04;4.17;;;3.77;;
44862;SDS011;30597;49.628;10.850;2023-03-02T04:23:29;4.17;;;3.87;;
44862;SDS011;30597;49.628;10.850;2023-03-02T04:25:55;4.67;;;4.23;;
44862;SDS011;30597;49.628;10.850;2023-03-02T04:28:20;4.40;;;4.00;;
44862;SDS011;30597;49.628;10.850;2023-03-02T04:30:46;4.27;;;3.87;;
44862;SDS011;30597;49.628;10.850;2023-03-02T04:33:11;4.63;;;4.07;;
44862;SDS011;30597;49.628;10.850;2023-03-02T04:35:37;4.87;;;4.37;;
44862;SDS011;30597;49.628;10.850;2023-03-02T04:38:02;4.20;;;3.70;;
44862;SDS011;30597;49.628;10.850;2023-03-02T04:40:28;4.33;;;3.93;;
44862;SDS011;30597;49.628;10.850;2023-03-02T04:42:54;4.50;;;4.10;;
44862;SDS011;30597;49.628;10.850;2023-03-02T04:45:19;4.20;;;3.70;;
44862;SDS011;30597;49.628;10.850;2023-03-02T04:47:45;4.20;;;3.67;;
44862;SDS011;30597;49.628;10.850;2023-03-02T04:50:11;4.53;;;4.13;;
44862;SDS011;30597;49.628;10.850;2023-03-02T04:52:38;4.50;;;3.97;;
44862;SDS011;30597;49.628;10.850;2023-03-02T04:55:04;4.03;;;3.60;;
44862;SDS011;30597;49.628;10.850;2023-03-02T04:57:30;3.90;;;3.47;;
44862;SDS011;30597;49.628;10.850;2023-03-02T04:59:56;4.30;;;3.90;;
44862;SDS011;30597;49.628;10.850;2023-03-02T05:02:22;4.20;;;3.80;;
44862;SDS011;30597;49.628;10.850;2023-03-02T05:04:47;3.90;;;3.50;;
44862;SDS011;30597;49.628;10.850;2023-03-02T05:07:13;3.83;;;3.43;;
44862;SDS011;30597;49.628;10.850;2023-03-02T05:09:38;4.13;;;3.73;;
44862;SDS011;30597;49.628;10.850;2023-03-02T05:12:04;4.33;;;3.63;;
44862;SDS011;30597;49.628;10.850;2023-03-02T05:14:30;4.73;;;3.97;;
44862;SDS011;30597;49.628;10.850;2023-03-02T05:16:56;5.10;;;4.03;;
44862;SDS011;30597;49.628;10.850;2023-03-02T05:19:22;4.60;;;3.97;;
44862;SDS011;30597;49.628;10.850;2023-03-02T05:21:48;3.60;;;3.30;;
44862;SDS011;30597;49.628;10.850;2023-03-02T05:24:13;4.30;;;3.90;;
44862;SDS011;30597;49.628;10.850;2023-03-02T05:26:39;3.57;;;3.27;;
44862;SDS011;30597;49.628;10.850;2023-03-02T05:29:05;4.10;;;3.70;;
44862;SDS011;30597;49.628;10.850;2023-03-02T05:31:35;4.40;;;3.70;;
44862;SDS011;30597;49.628;10.850;2023-03-02T05:34:04;3.50;;;3.20;;
44862;SDS011;30597;49.628;10.850;2023-03-02T05:36:31;3.93;;;3.53;;
44862;SDS011;30597;49.628;10.850;2023-03-02T05:38:57;5.47;;;4.00;;
44862;SDS011;30597;49.628;10.850;2023-03-02T05:41:23;3.67;;;2.97;;
44862;SDS011;30597;49.628;10.850;2023-03-02T05:43:49;3.90;;;3.60;;
44862;SDS011;30597;49.628;10.850;2023-03-02T05:46:15;4.20;;;3.80;;
44862;SDS011;30597;49.628;10.850;2023-03-02T05:48:41;4.30;;;3.90;;
44862;SDS011;30597;49.628;10.850;2023-03-02T05:51:07;3.87;;;3.37;;
44862;SDS011;30597;49.628;10.850;2023-03-02T05:53:32;4.47;;;3.40;;
44862;SDS011;30597;49.628;10.850;2023-03-02T05:55:58;6.13;;;3.53;;
44862;SDS011;30597;49.628;10.850;2023-03-02T05:58:25;3.20;;;2.87;;
44862;SDS011;30597;49.628;10.850;2023-03-02T06:00:50;3.93;;;3.20;;
44862;SDS011;30597;49.628;10.850;2023-03-02T06:03:16;3.27;;;2.97;;
44862;SDS011;30597;49.628;10.850;2023-03-02T06:05:41;3.90;;;3.50;;
44862;SDS011;30597;49.628;10.850;2023-03-02T06:08:07;3.60;;;3.30;;
44862;SDS011;30597;49.628;10.850;2023-03-02T06:10:33;4.23;;;3.30;;
44862;SDS011;30597;49.628;10.850;2023-03-02T06:12:59;4.43;;;4.03;;
44862;SDS011;30597;49.628;10.850;2023-03-02T06:15:25;3.23;;;2.93;;
44862;SDS011;30597;49.628;10.850;2023-03-02T06:17:53;3.27;;;2.97;;
44862;SDS011;30597;49.628;10.850;2023-03-02T06:20:20;4.20;;;3.73;;
44862;SDS011;30597;49.628;10.850;2023-03-02T06:22:45;4.20;;;3.80;;
44862;SDS011;30597;49.628;10.850;2023-03-02T06:25:12;4.67;;;3.80;;
44862;SDS011;30597;49.628;10.850;2023-03-02T06:27:39;4.03;;;3.33;;
44862;SDS011;30597;49.628;10.850;2023-03-02T06:30:06;3.83;;;3.53;;
44862;SDS011;30597;49.628;10.850;2023-03-02T06:32:34;3.50;;;3.20;;
44862;SDS011;30597;49.628;10.850;2023-03-02T06:35:00;4.33;;;3.93;;
44862;SDS011;30597;49.628;10.850;2023-03-02T06:37:27;3.63;;;3.30;;
44862;SDS011;30597;49.628;10.850;2023-03-02T06:39:53;3.80;;;3.40;;
44862;SDS011;30597;49.628;10.850;2023-03-02T06:42:20;3.70;;;3.40;;
44862;SDS011;30597;49.628;10.850;2023-03-02T06:44:45;3.60;;;3.30;;
44862;SDS011;30597;49.628;10.850;2023-03-02T06:47:11;3.83;;;3.30;;
44862;SDS011;30597;49.628;10.850;2023-03-02T06:49:36;4.20;;;3.87;;
44862;SDS011;30597;49.628;10.850;2023-03-02T06:52:02;4.93;;;4.43;;
44862;SDS011;30597;49.628;10.850;2023-03-02T06:54:28;4.50;;;3.73;;
44862;SDS011;30597;49.628;10.850;2023-03-02T06:56:54;3.87;;;3.50;;
44862;SDS011;30597;49.628;10.850;2023-03-02T06:59:21;3.90;;;3.50;;
44862;SDS011;30597;49.628;10.850;2023-03-02T07:01:47;4.20;;;3.77;;
44862;SDS011;30597;49.628;10.850;2023-03-02T07:04:14;4.40;;;3.90;;
44862;SDS011;30597;49.628;10.850;2023-03-02T07:06:40;6.40;;;4.50;;
44862;SDS011;30597;49.628;10.850;2023-03-02T07:09:06;5.97;;;4.20;;
44862;SDS011;30597;49.628;10.850;2023-03-02T07:11:31;4.87;;;4.37;;
44862;SDS011;30597;49.628;10.850;2023-03-02T07:13:58;5.23;;;4.73;;
44862;SDS011;30597;49.628;10.850;2023-03-02T07:16:24;6.23;;;5.23;;
44862;SDS011;30597;49.628;10.850;2023-03-02T07:18:50;6.17;;;4.93;;
44862;SDS011;30597;49.628;10.850;2023-03-02T07:21:16;7.00;;;4.83;;
44862;SDS011;30597;49.628;10.850;2023-03-02T07:23:41;5.10;;;4.60;;
44862;SDS011;30597;49.628;10.850;2023-03-02T07:26:07;4.87;;;4.37;;
44862;SDS011;30597;49.628;10.850;2023-03-02T07:28:33;6.00;;;4.87;;
44862;SDS011;30597;49.628;10.850;2023-03-02T07:31:06;5.07;;;4.50;;
44862;SDS011;30597;49.628;10.850;2023-03-02T07:33:32;5.33;;;4.83;;
44862;SDS011;30597;49.628;10.850;2023-03-02T07:35:58;9.20;;;5.90;;
44862;SDS011;30597;49.628;10.850;2023-03-02T07:38:24;5.77;;;5.23;;
44862;SDS011;30597;49.628;10.850;2023-03-02T07:40:50;5.53;;;5.03;;
44862;SDS011;30597;49.628;10.850;2023-03-02T07:43:16;5.67;;;5.13;;
44862;SDS011;30597;49.628;10.850;2023-03-02T07:45:41;5.33;;;4.83;;
44862;SDS011;30597;49.628;10.850;2023-03-02T07:48:07;6.77;;;5.23;;
44862;SDS011;30597;49.628;10.850;2023-03-02T07:50:33;6.20;;;5.60;;
44862;SDS011;30597;49.628;10.850;2023-03-02T07:52:59;5.73;;;5.07;;
44862;SDS011;30597;49.628;10.850;2023-03-02T07:55:24;5.13;;;4.57;;
44862;SDS011;30597;49.628;10.850;2023-03-02T07:57:50;6.43;;;5.10;;
44862;SDS011;30597;49.628;10.850;2023-03-02T08:00:16;5.70;;;5.10;;
44862;SDS011;30597;49.628;10.850;2023-03-02T08:02:42;5.23;;;4.73;;
44862;SDS011;30597;49.628;10.850;2023-03-02T08:05:08;6.00;;;5.40;;
44862;SDS011;30597;49.628;10.850;2023-03-02T08:07:35;6.57;;;5.30;;
44862;SDS011;30597;49.628;10.850;2023-03-02T08:10:01;7.77;;;5.50;;
44862;SDS011;30597;49.628;10.850;2023-03-02T08:12:27;5.20;;;4.80;;
44862;SDS011;30597;49.628;10.850;2023-03-02T08:14:53;5.43;;;4.93;;
44862;SDS011;30597;49.628;10.850;2023-03-02T08:17:18;5.57;;;5.07;;
44862;SDS011;30597;49.628;10.850;2023-03-02T08:19:44;5.03;;;4.53;;
44862;SDS011;30597;49.628;10.850;2023-03-02T08:22:10;5.57;;;5.07;;
44862;SDS011;30597;49.628;10.850;2023-03-02T08:24:36;6.17;;;5.67;;
44862;SDS011;30597;49.628;10.850;2023-03-02T08:27:02;5.60;;;5.00;;
44862;SDS011;30597;49.628;10.850;2023-03-02T08:29:28;5.27;;;4.87;;
44862;SDS011;30597;49.628;10.850;2023-03-02T08:31:54;6.10;;;5.50;;
44862;SDS011;30597;49.628;10.850;2023-03-02T08:34:19;4.93;;;4.43;;
44862;SDS011;30597;49.628;10.850;2023-03-02T08:36:45;5.43;;;4.93;;
44862;SDS011;30597;49.628;10.850;2023-03-02T08:39:11;5.37;;;4.87;;
44862;SDS011;30597;49.628;10.850;2023-03-02T08:41:36;5.53;;;5.00;;
44862;SDS011;30597;49.628;10.850;2023-03-02T08:44:02;5.90;;;4.10;;
44862;SDS011;30597;49.628;10.850;2023-03-02T08:46:28;4.77;;;4.33;;
44862;SDS011;30597;49.628;10.850;2023-03-02T08:48:54;5.77;;;4.57;;
44862;SDS011;30597;49.628;10.850;2023-03-02T08:51:21;4.80;;;4.30;;
44862;SDS011;30597;49.628;10.850;2023-03-02T08:53:49;5.07;;;4.57;;
44862;SDS011;30597;49.628;10.850;2023-03-02T08:56:20;5.13;;;4.73;;
44862;SDS011;30597;49.628;10.850;2023-03-02T08:58:48;4.93;;;4.53;;
44862;SDS011;30597;49.628;10.850;2023-03-02T09:01:19;5.17;;;4.77;;
44862;SDS011;30597;49.628;10.850;2023-03-02T09:03:47;4.57;;;4.10;;
44862;SDS011;30597;49.628;10.850;2023-03-02T09:06:14;5.40;;;4.63;;
44862;SDS011;30597;49.628;10.850;2023-03-02T09:08:39;5.70;;;5.10;;
44862;SDS011;30597;49.628;10.850;2023-03-02T09:11:06;4.80;;;4.10;;
44862;SDS011;30597;49.628;10.850;2023-03-02T09:13:32;6.30;;;4.87;;
44862;SDS011;30597;49.628;10.850;2023-03-02T09:15:58;4.60;;;4.07;;
44862;SDS011;30597;49.628;10.850;2023-03-02T09:18:24;4.70;;;4.30;;
44862;SDS011;30597;49.628;10.850;2023-03-02T09:20:51;4.33;;;3.93;;
44862;SDS011;30597;49.628;10.850;2023-03-02T09:23:17;6.53;;;4.53;;
44862;SDS011;30597;49.628;10.850;2023-03-02T09:25:43;4.90;;;4.17;;
44862;SDS011;30597;49.628;10.850;2023-03-02T09:28:09;4.50;;;3.97;;
44862;SDS011;30597;49.628;10.850;2023-03-02T09:30:35;5.57;;;5.03;;
44862;SDS011;30597;49.628;10.850;2023-03-02T09:33:00;5.07;;;4.50;;
44862;SDS011;30597;49.628;10.850;2023-03-02T09:35:26;5.30;;;4.80;;
44862;SDS011;30597;49.628;10.850;2023-03-02T09:37:51;5.03;;;4.03;;
44862;SDS011;30597;49.628;10.850;2023-03-02T09:40:21;4.77;;;4.03;;
44862;SDS011;30597;49.628;10.850;2023-03-02T09:51:40;4.80;;;4.30;;
44862;SDS011;30597;49.628;10.850;2023-03-02T09:54:11;4.40;;;4.00;;
44862;SDS011;30597;49.628;10.850;2023-03-02T09:56:44;4.53;;;4.03;;
44862;SDS011;30597;49.628;10.850;2023-03-02T09:59:17;5.80;;;3.73;;
44862;SDS011;30597;49.628;10.850;2023-03-02T10:01:58;4.57;;;4.00;;
44862;SDS011;30597;49.628;10.850;2023-03-02T10:04:29;5.10;;;4.70;;
44862;SDS011;30597;49.628;10.850;2023-03-02T10:07:12;4.43;;;4.03;;
44862;SDS011;30597;49.628;10.850;2023-03-02T10:09:40;5.37;;;4.10;;
44862;SDS011;30597;49.628;10.850;2023-03-02T10:12:14;4.40;;;4.00;;
44862;SDS011;30597;49.628;10.850;2023-03-02T10:14:57;4.40;;;4.00;;
44862;SDS011;30597;49.628;10.850;2023-03-02T10:23:10;5.30;;;4.80;;
44862;SDS011;30597;49.628;10.850;2023-03-02T10:25:51;5.93;;;5.40;;
44862;SDS011;30597;49.628;10.850;2023-03-02T10:28:41;6.50;;;5.20;;
44862;SDS011;30597;49.628;10.850;2023-03-02T10:31:15;5.73;;;5.20;;
44862;SDS011;30597;49.628;10.850;2023-03-02T10:33:48;5.47;;;4.97;;
44862;SDS011;30597;49.628;10.850;2023-03-02T10:36:18;8.63;;;5.33;;
44862;SDS011;30597;49.628;10.850;2023-03-02T10:38:45;5.43;;;4.93;;
44862;SDS011;30597;49.628;10.850;2023-03-02T10:41:13;7.37;;;5.73;;
44862;SDS011;30597;49.628;10.850;2023-03-02T10:43:45;6.20;;;5.57;;
44862;SDS011;30597;49.628;10.850;2023-03-02T10:46:13;6.97;;;5.20;;
44862;SDS011;30597;49.628;10.850;2023-03-02T10:51:21;6.33;;;4.63;;
44862;SDS011;30597;49.628;10.850;2023-03-02T10:54:00;5.53;;;4.53;;
44862;SDS011;30597;49.628;10.850;2023-03-02T10:56:36;4.80;;;4.20;;
44862;SDS011;30597;49.628;10.850;2023-03-02T11:00:04;5.07;;;4.53;;
44862;SDS011;30597;49.628;10.850;2023-03-02T11:04:48;6.03;;;4.73;;
44862;SDS011;30597;49.628;10.850;2023-03-02T11:07:19;5.87;;;5.27;;
44862;SDS011;30597;49.628;10.850;2023-03-02T11:10:00;6.43;;;4.97;;
44862;SDS011;30597;49.628;10.850;2023-03-02T11:12:29;9.57;;;6.43;;
44862;SDS011;30597;49.628;10.850;2023-03-02T11:17:44;9.27;;;7.57;;
44862;SDS011;30597;49.628;10.850;2023-03-02T11:20:16;9.40;;;6.87;;
44862;SDS011;30597;49.628;10.850;2023-03-02T11:25:24;9.10;;;6.97;;
44862;SDS011;30597;49.628;10.850;2023-03-02T11:27:57;12.90;;;7.37;;
44862;SDS011;30597;49.628;10.850;2023-03-02T11:30:27;9.80;;;7.30;;
44862;SDS011;30597;49.628;10.850;2023-03-02T11:33:22;9.53;;;7.57;;
44862;SDS011;30597;49.628;10.850;2023-03-02T11:36:16;10.10;;;7.00;;
44862;SDS011;30597;49.628;10.850;2023-03-02T11:38:50;9.03;;;7.23;;
44862;SDS011;30597;49.628;10.850;2023-03-02T11:43:52;11.40;;;7.70;;
44862;SDS011;30597;49.628;10.850;2023-03-02T11:46:21;11.60;;;7.97;;
44862;SDS011;30597;49.628;10.850;2023-03-02T11:48:49;15.17;;;8.33;;
44862;SDS011;30597;49.628;10.850;2023-03-02T11:51:21;13.30;;;8.73;;
44862;SDS011;30597;49.628;10.850;2023-03-02T11:53:52;17.40;;;9.67;;
44862;SDS011;30597;49.628;10.850;2023-03-02T11:56:41;12.10;;;8.63;;
44862;SDS011;30597;49.628;10.850;2023-03-02T11:59:11;14.43;;;9.03;;
44862;SDS011;30597;49.628;10.850;2023-03-02T12:01:44;14.70;;;8.87;;
44862;SDS011;30597;49.628;10.850;2023-03-02T12:04:29;14.03;;;8.10;;
44862;SDS011;30597;49.628;10.850;2023-03-02T12:06:57;12.63;;;8.97;;
44862;SDS011;30597;49.628;10.850;2023-03-02T12:09:32;14.57;;;9.37;;
44862;SDS011;30597;49.628;10.850;2023-03-02T12:14:41;18.07;;;9.43;;
44862;SDS011;30597;49.628;10.850;2023-03-02T12:17:21;11.43;;;8.53;;
44862;SDS011;30597;49.628;10.850;2023-03-02T12:19:54;13.80;;;8.30;;
44862;SDS011;30597;49.628;10.850;2023-03-02T12:22:45;11.57;;;8.17;;
44862;SDS011;30597;49.628;10.850;2023-03-02T12:27:46;13.13;;;8.30;;
44862;SDS011;30597;49.628;10.850;2023-03-02T12:32:57;10.70;;;8.20;;
44862;SDS011;30597;49.628;10.850;2023-03-02T12:35:26;10.40;;;7.40;;
44862;SDS011;30597;49.628;10.850;2023-03-02T12:37:57;12.10;;;7.53;;
44862;SDS011;30597;49.628;10.850;2023-03-02T12:40:50;9.70;;;7.50;;
44862;SDS011;30597;49.628;10.850;2023-03-02T12:43:31;11.30;;;8.97;;
44862;SDS011;30597;49.628;10.850;2023-03-02T12:48:43;13.03;;;7.00;;
44862;SDS011;30597;49.628;10.850;2023-03-02T12:54:31;10.50;;;7.50;;
44862;SDS011;30597;49.628;10.850;2023-03-02T12:57:02;10.53;;;6.63;;
44862;SDS011;30597;49.628;10.850;2023-03-02T12:59:30;9.93;;;6.57;;
44862;SDS011;30597;49.628;10.850;2023-03-02T13:02:13;8.93;;;6.43;;
44862;SDS011;30597;49.628;10.850;2023-03-02T13:04:41;10.50;;;7.60;;
44862;SDS011;30597;49.628;10.850;2023-03-02T13:07:13;9.53;;;7.17;;
44862;SDS011;30597;49.628;10.850;2023-03-02T13:09:47;9.53;;;6.07;;
44862;SDS011;30597;49.628;10.850;2023-03-02T13:12:17;9.30;;;6.60;;
44862;SDS011;30597;49.628;10.850;2023-03-02T13:14:43;6.93;;;5.90;;
44862;SDS011;30597;49.628;10.850;2023-03-02T13:17:22;7.80;;;6.10;;
44862;SDS011;30597;49.628;10.850;2023-03-02T13:19:57;8.30;;;5.80;;
44862;SDS011;30597;49.628;10.850;2023-03-02T13:22:24;9.67;;;7.27;;
44862;SDS011;30597;49.628;10.850;2023-03-02T13:24:56;8.20;;;6.23;;
44862;SDS011;30597;49.628;10.850;2023-03-02T13:27:27;7.93;;;6.60;;
44862;SDS011;30597;49.628;10.850;2023-03-02T13:29:54;8.60;;;6.43;;
44862;SDS011;30597;49.628;10.850;2023-03-02T13:32:24;7.23;;;6.10;;
44862;SDS011;30597;49.628;10.850;2023-03-02T13:34:52;8.30;;;6.60;;
44862;SDS011;30597;49.628;10.850;2023-03-02T13:40:05;10.43;;;5.60;;
44862;SDS011;30597;49.628;10.850;2023-03-02T13:42:51;11.97;;;6.37;;
44862;SDS011;30597;49.628;10.850;2023-03-02T13:47:49;7.00;;;5.33;;
44862;SDS011;30597;49.628;10.850;2023-03-02T13:50:19;7.50;;;5.97;;
44862;SDS011;30597;49.628;10.850;2023-03-02T13:52:50;7.63;;;5.87;;
44862;SDS011;30597;49.628;10.850;2023-03-02T13:55:19;8.87;;;5.80;;
44862;SDS011;30597;49.628;10.850;2023-03-02T13:57:45;6.87;;;5.60;;
44862;SDS011;30597;49.628;10.850;2023-03-02T14:00:25;7.50;;;5.47;;
44862;SDS011;30597;49.628;10.850;2023-03-02T14:02:59;8.30;;;5.43;;
44862;SDS011;30597;49.628;10.850;2023-03-02T14:05:25;8.20;;;5.90;;
44862;SDS011;30597;49.628;10.850;2023-03-02T14:07:57;6.40;;;5.57;;
44862;SDS011;30597;49.628;10.850;2023-03-02T14:10:23;6.90;;;6.00;;
44862;SDS011;30597;49.628;10.850;2023-03-02T14:12:57;6.00;;;4.73;;
44862;SDS011;30597;49.628;10.850;2023-03-02T14:15:30;6.50;;;5.10;;
44862;SDS011;30597;49.628;10.850;2023-03-02T14:17:56;7.63;;;5.47;;
44862;SDS011;30597;49.628;10.850;2023-03-02T14:20:21;6.97;;;5.93;;
44862;SDS011;30597;49.628;10.850;2023-03-02T14:22:47;7.80;;;5.17;;
44862;SDS011;30597;49.628;10.850;2023-03-02T14:25:14;6.37;;;5.37;;
44862;SDS011;30597;49.628;10.850;2023-03-02T14:27:40;7.17;;;5.30;;
44862;SDS011;30597;49.628;10.850;2023-03-02T14:30:14;8.07;;;5.37;;
44862;SDS011;30597;49.628;10.850;2023-03-02T14:32:42;7.50;;;5.70;;
44862;SDS011;30597;49.628;10.850;2023-03-02T14:35:11;6.93;;;5.13;;
44862;SDS011;30597;49.628;10.850;2023-03-02T14:37:43;7.50;;;5.03;;
44862;SDS011;30597;49.628;10.850;2023-03-02T14:40:15;5.90;;;4.87;;
44862;SDS011;30597;49.628;10.850;2023-03-02T14:42:45;5.60;;;4.20;;
44862;SDS011;30597;49.628;10.850;2023-03-02T14:45:10;5.73;;;4.40;;
44862;SDS011;30597;49.628;10.850;2023-03-02T14:47:36;4.90;;;4.40;;
44862;SDS011;30597;49.628;10.850;2023-03-02T14:50:02;5.27;;;4.73;;
44862;SDS011;30597;49.628;10.850;2023-03-02T14:52:30;6.57;;;5.10;;
44862;SDS011;30597;49.628;10.850;2023-03-02T14:55:00;5.97;;;5.03;;
44862;SDS011;30597;49.628;10.850;2023-03-02T14:57:32;7.83;;;5.10;;
44862;SDS011;30597;49.628;10.850;2023-03-02T15:00:01;10.13;;;4.83;;
44862;SDS011;30597;49.628;10.850;2023-03-02T15:02:26;6.43;;;5.37;;
44862;SDS011;30597;49.628;10.850;2023-03-02T15:04:53;5.30;;;4.77;;
44862;SDS011;30597;49.628;10.850;2023-03-02T15:07:20;5.67;;;4.80;;
44862;SDS011;30597;49.628;10.850;2023-03-02T15:09:46;5.73;;;5.07;;
44862;SDS011;30597;49.628;10.850;2023-03-02T15:12:12;5.17;;;4.20;;
44862;SDS011;30597;49.628;10.850;2023-03-02T15:14:37;5.87;;;4.30;;
44862;SDS011;30597;49.628;10.850;2023-03-02T15:17:03;5.23;;;4.70;;
44862;SDS011;30597;49.628;10.850;2023-03-02T15:19:29;5.50;;;4.93;;
44862;SDS011;30597;49.628;10.850;2023-03-02T15:21:56;5.63;;;5.10;;
44862;SDS011;30597;49.628;10.850;2023-03-02T15:24:22;5.97;;;4.20;;
44862;SDS011;30597;49.628;10.850;2023-03-02T15:26:51;6.60;;;4.77;;
44862;SDS011;30597;49.628;10.850;2023-03-02T15:29:17;5.33;;;4.83;;
44862;SDS011;30597;49.628;10.850;2023-03-02T15:31:44;4.93;;;4.33;;
44862;SDS011;30597;49.628;10.850;2023-03-02T15:34:10;5.03;;;4.47;;
44862;SDS011;30597;49.628;10.850;2023-03-02T15:36:36;6.20;;;4.77;;
44862;SDS011;30597;49.628;10.850;2023-03-02T15:39:03;6.53;;;3.97;;